Meteo Giornale » Osservazioni meteo Italia » Aosta

ore: 16:20 - Osservazioni Meteo Aosta
Lat. 45° 44' N Lon. 7° 22' E Alt. 546 metri s.l.m.

sereno Europe/Rome

12 °C

Sereno

Temp. 24 Ore

4 °C

15 °C

Nord

1.8 Km/h

Dew point 5 °C

Umidità 62 %

Visibilità  10 Km

Il sole sorge alle ore 07:27

Il sole tramonta alle ore 17:02

Data e Ora Cielo e Fenomeni T °C DP °C Um. % Pres. hPa Vis. km Vento km/h
Oggi h: 16:20 sereno Sereno 12 5 62 1027 10 N 1.8
Oggi h: 15:50 sereno Sereno 13 5 58 1027 10 N 3.7
Oggi h: 15:20 sereno Sereno 15 4 47 1027 10 N 3.7
Oggi h: 14:50 sereno Sereno 14 5 54 1027 10 N 3.7
Oggi h: 14:20 sereno Sereno 15 4 47 1028 10 N 3.7
Oggi h: 13:50 sereno Sereno 14 5 54 1028 10 N 3.7
Oggi h: 13:20 sereno Sereno 14 6 58 1028 10 N 3.7
Oggi h: 12:50 sereno Sereno 13 5 58 1029 10 N 1.8
Oggi h: 12:20 sereno Sereno 11 6 71 1029 10 N 1.8
Oggi h: 11:50 sereno Sereno 7 6 93 1030 10 N 0
Oggi h: 11:20 sereno Sereno 6 5 93 1030 10 N 3.7
Oggi h: 10:50 sereno Sereno 7 6 93 1031 10 N 5.5
Oggi h: 10:20 sereno Sereno 5 5 100 1031 10 N 3.7
Oggi h: 09:50 sereno Sereno 4 4 100 1031 10 N 0
Oggi h: 09:20 sereno Sereno 4 4 100 1031 10 N 5.5
Oggi h: 08:50 sereno Sereno 4 4 100 1031 10 N 0
Oggi h: 08:20 sereno Sereno 4 4 100 1030 10 N 0
Oggi h: 07:50 sereno Sereno 4 4 100 1030 10 N 0
Oggi h: 07:20 sereno Sereno 4 4 100 1030 10 N 3.7
Ieri h: 16:50 molto_nuvoloso Molto Nuvoloso 12 8 76 1028 10 N 3.7